Time;durP1;ratioP1;P1;durP2;ratioP2;P2;SDS_P1;SDS_P2;PMS_P1;PMS_P2;Temp;Humidity;BMP_temperature;BMP_pressure;BME280_temperature;BME280_humidity;BME280_pressure;Samples;Min_cycle;Max_cycle;Signal;HPM_P1;HPM_P2
2021/04/27 00:00:24;;;;;;;9.28;4.95;;;;;;;6.72;45.95;97452.68;1726547;82;21120;-75
2021/04/27 00:02:53;;;;;;;7.50;4.50;;;;;;;6.69;46.27;97455.37;1724119;82;21099;-79
2021/04/27 00:05:21;;;;;;;8.25;4.80;;;;;;;6.67;46.50;97451.92;1736316;82;21118;-78
2021/04/27 00:07:48;;;;;;;11.12;5.12;;;;;;;6.68;46.29;97447.53;1740709;82;21479;-78
2021/04/27 00:10:19;;;;;;;11.75;5.40;;;;;;;6.70;45.69;97439.13;1734661;82;21080;-76
2021/04/27 00:12:47;;;;;;;8.73;4.87;;;;;;;6.72;45.63;97430.30;1726489;82;21127;-75
2021/04/27 00:15:19;;;;;;;8.28;4.55;;;;;;;6.72;45.52;97432.05;1723991;82;21088;-75
2021/04/27 00:17:47;;;;;;;8.38;3.98;;;;;;;6.72;45.88;97430.73;1726152;82;21115;-75
2021/04/27 00:20:16;;;;;;;7.60;5.22;;;;;;;6.72;46.15;97433.37;1735830;82;21140;-76
2021/04/27 00:22:44;;;;;;;8.48;4.87;;;;;;;6.66;46.07;97429.12;1740549;82;21164;-76
2021/04/27 00:25:13;;;;;;;8.65;4.92;;;;;;;6.60;46.66;97427.93;1734748;82;21131;-75
2021/04/27 00:27:42;;;;;;;11.00;5.08;;;;;;;6.55;47.08;97437.70;1726565;81;21116;-76
2021/04/27 00:30:11;;;;;;;7.50;5.00;;;;;;;6.54;46.54;97446.50;1711418;84;21291;-75
2021/04/27 00:32:38;;;;;;;7.50;4.05;;;;;;;6.53;47.76;97447.41;1725586;82;21084;-77
2021/04/27 00:35:07;;;;;;;9.23;3.70;;;;;;;6.49;46.67;97441.36;1711319;83;21661;-77
2021/04/27 00:37:34;;;;;;;10.53;4.30;;;;;;;6.50;46.56;97433.88;1712027;82;21498;-77
2021/04/27 00:40:04;;;;;;;7.40;4.53;;;;;;;6.49;46.37;97418.98;1711370;84;21304;-76
2021/04/27 00:42:34;;;;;;;9.20;4.10;;;;;;;6.47;45.99;97422.95;1711276;84;21274;-77
2021/04/27 00:45:07;;;;;;;8.85;4.50;;;;;;;6.43;46.00;97418.66;1658249;86;21136;-77
2021/04/27 00:47:36;;;;;;;7.85;3.90;;;;;;;6.33;46.27;97415.38;1660226;85;21512;-77
2021/04/27 00:50:11;;;;;;;8.15;3.72;;;;;;;6.25;46.84;97423.88;1685558;85;21112;-77
2021/04/27 00:52:39;;;;;;;6.85;4.05;;;;;;;6.25;46.42;97426.51;1673545;85;21467;-77
2021/04/27 00:55:08;;;;;;;8.53;4.30;;;;;;;6.24;46.46;97422.16;1668493;85;21497;-77
2021/04/27 00:57:35;;;;;;;11.15;5.22;;;;;;;6.27;46.71;97419.44;1659795;85;21483;-77
2021/04/27 01:00:08;;;;;;;9.08;5.08;;;;;;;6.26;47.05;97419.46;1685671;85;21494;-77
2021/04/27 01:02:36;;;;;;;14.40;5.22;;;;;;;6.20;46.99;97417.37;1685899;85;21136;-77
2021/04/27 01:05:09;;;;;;;11.08;5.10;;;;;;;6.13;47.59;97409.66;1685782;85;21131;-77
2021/04/27 01:07:53;;;;;;;6.62;4.83;;;;;;;6.02;47.63;97408.55;1683852;85;21183;-77
2021/04/27 01:10:25;;;;;;;13.13;4.92;;;;;;;5.98;47.47;97406.88;1658300;86;21135;-77
2021/04/27 01:13:00;;;;;;;8.70;4.50;;;;;;;5.90;47.78;97410.98;1658211;86;21135;-77
2021/04/27 01:15:29;;;;;;;8.40;4.30;;;;;;;5.86;48.08;97408.84;1658264;86;21136;-77
2021/04/27 01:17:58;;;;;;;8.53;4.33;;;;;;;5.81;48.86;97412.89;1670471;83;21156;-77
2021/04/27 01:20:43;;;;;;;8.75;4.47;;;;;;;5.83;48.35;97413.30;1666066;85;21482;-77
2021/04/27 01:23:30;;;;;;;9.65;4.47;;;;;;;5.81;48.75;97412.02;1685683;85;21125;-77
2021/04/27 01:26:09;;;;;;;9.45;4.87;;;;;;;5.79;48.79;97412.06;1685147;85;21124;-77
2021/04/27 01:28:40;;;;;;;8.90;5.28;;;;;;;5.79;49.06;97405.92;1653724;86;21097;-77
2021/04/27 01:31:08;;;;;;;9.83;5.10;;;;;;;5.79;50.15;97398.92;1658112;86;21159;-77
2021/04/27 01:33:36;;;;;;;10.90;4.87;;;;;;;5.80;50.63;97391.88;1658211;86;21113;-77
2021/04/27 01:36:04;;;;;;;9.10;5.17;;;;;;;5.81;51.42;97393.60;1658332;86;21155;-77
2021/04/27 01:38:35;;;;;;;10.32;4.53;;;;;;;5.80;50.14;97382.67;1658568;84;21093;-77
2021/04/27 01:41:03;;;;;;;10.23;5.05;;;;;;;5.79;51.12;97380.52;1660283;85;21144;-77
2021/04/27 01:43:32;;;;;;;11.12;5.33;;;;;;;5.78;51.19;97376.59;1671270;85;21147;-77
2021/04/27 01:46:04;;;;;;;10.35;5.00;;;;;;;5.75;50.50;97370.07;1685836;85;21132;-77
2021/04/27 01:48:33;;;;;;;8.73;5.00;;;;;;;5.74;50.57;97369.66;1677252;84;21144;-76
2021/04/27 01:51:04;;;;;;;9.90;5.75;;;;;;;5.65;50.81;97362.36;1661197;86;21143;-77
2021/04/27 01:53:50;;;;;;;9.93;5.92;;;;;;;5.57;50.96;97369.56;1687410;85;21146;-77
2021/04/27 01:56:20;;;;;;;10.25;5.92;;;;;;;5.57;50.71;97368.68;1687307;85;21190;-76
2021/04/27 01:58:48;;;;;;;10.40;6.05;;;;;;;5.54;51.05;97359.09;1671040;85;21099;-76
2021/04/27 02:01:20;;;;;;;9.48;5.08;;;;;;;5.49;51.74;97368.36;1689305;84;21130;-76
2021/04/27 02:03:49;;;;;;;9.28;4.12;;;;;;;5.44;51.11;97370.22;1697081;84;21469;-77
2021/04/27 02:06:24;;;;;;;8.00;4.03;;;;;;;5.44;50.86;97375.47;1658933;85;21524;-75
2021/04/27 02:09:07;;;;;;;7.53;4.47;;;;;;;5.44;50.69;97371.53;1640095;85;21454;-76
2021/04/27 02:11:44;;;;;;;7.27;4.03;;;;;;;5.45;51.37;97372.41;1687030;85;21158;-76
2021/04/27 02:14:13;;;;;;;7.20;4.53;;;;;;;5.36;51.00;97365.58;1685917;85;22205;-77
2021/04/27 02:17:17;;;;;;;7.67;3.77;;;;;;;5.37;50.59;97374.75;1704639;84;21127;-77
2021/04/27 02:19:45;;;;;;;7.67;4.65;;;;;;;5.36;51.65;97370.36;1686856;85;21493;-76
2021/04/27 02:22:33;;;;;;;5.87;4.30;;;;;;;5.32;50.86;97369.15;1594125;90;21202;-77
2021/04/27 02:25:20;;;;;;;7.12;3.75;;;;;;;5.39;50.77;97367.69;1781250;79;23394;-78
2021/04/27 02:27:49;;;;;;;7.62;4.33;;;;;;;5.33;50.90;97362.99;1722747;82;21095;-77
2021/04/27 02:30:20;;;;;;;11.40;4.83;;;;;;;5.34;50.61;97369.53;1724619;82;21131;-76
2021/04/27 02:32:49;;;;;;;14.07;5.87;;;;;;;5.33;51.96;97367.81;1742571;82;21534;-76
2021/04/27 02:35:20;;;;;;;9.00;4.87;;;;;;;5.32;51.52;97359.95;1693216;83;21095;-76
2021/04/27 02:37:50;;;;;;;11.75;5.22;;;;;;;5.23;53.34;97357.91;1692764;85;21149;-76
2021/04/27 02:40:27;;;;;;;11.48;5.10;;;;;;;5.19;52.61;97354.06;1691794;84;21143;-76
2021/04/27 02:42:59;;;;;;;11.95;5.87;;;;;;;5.14;52.94;97348.87;1713414;84;21143;-76
2021/04/27 02:45:32;;;;;;;8.90;4.90;;;;;;;5.07;54.05;97353.37;1712681;84;21190;-77
2021/04/27 02:48:25;;;;;;;11.00;5.15;;;;;;;5.01;53.16;97352.17;1713748;84;21142;-77
2021/04/27 02:51:00;;;;;;;10.80;5.33;;;;;;;4.93;52.85;97347.05;1698224;84;21520;-77
2021/04/27 02:53:30;;;;;;;8.45;4.53;;;;;;;4.89;57.35;97360.69;1684704;85;21138;-77
2021/04/27 02:55:58;;;;;;;13.78;5.85;;;;;;;4.72;58.18;97358.78;1685074;84;21131;-77
2021/04/27 02:58:26;;;;;;;10.40;4.72;;;;;;;4.66;55.07;97357.14;1712537;84;21671;-76
2021/04/27 03:00:56;;;;;;;9.63;4.35;;;;;;;4.57;55.87;97366.01;1687149;84;21130;-76
2021/04/27 03:03:23;;;;;;;10.08;5.30;;;;;;;4.49;55.58;97362.66;1685288;84;21158;-76
2021/04/27 03:05:51;;;;;;;12.33;4.25;;;;;;;4.42;57.00;97357.06;1685309;85;21505;-76
2021/04/27 03:08:19;;;;;;;11.38;4.80;;;;;;;4.33;56.73;97361.55;1685425;85;21178;-77
2021/04/27 03:10:47;;;;;;;14.68;5.70;;;;;;;4.31;55.52;97362.03;1697722;84;21130;-77
2021/04/27 03:13:14;;;;;;;10.28;5.45;;;;;;;4.32;55.56;97364.22;1713890;83;21161;-75
2021/04/27 03:15:43;;;;;;;11.50;5.12;;;;;;;4.28;56.43;97360.75;1712973;84;21822;-75
2021/04/27 03:18:11;;;;;;;9.03;5.25;;;;;;;4.26;55.76;97362.55;1712115;82;21157;-75
2021/04/27 03:20:42;;;;;;;10.08;5.03;;;;;;;4.22;55.76;97364.35;1710573;84;21103;-76
2021/04/27 03:23:29;;;;;;;12.95;5.00;;;;;;;4.20;55.66;97361.33;1688971;84;21268;-76
2021/04/27 03:25:57;;;;;;;11.85;6.10;;;;;;;4.20;55.64;97373.98;1695900;84;21492;-76
2021/04/27 03:28:29;;;;;;;12.85;6.22;;;;;;;4.19;55.74;97370.94;1715445;84;21166;-76
2021/04/27 03:30:58;;;;;;;15.13;6.08;;;;;;;4.19;55.90;97370.94;1714076;84;21162;-76
2021/04/27 03:33:26;;;;;;;12.78;5.95;;;;;;;4.15;55.73;97373.17;1716399;83;21154;-75
2021/04/27 03:35:54;;;;;;;12.33;4.97;;;;;;;4.12;59.14;97377.17;1716148;84;21142;-75
2021/04/27 03:38:22;;;;;;;8.43;4.70;;;;;;;4.07;57.59;97383.78;1715883;83;21158;-75
2021/04/27 03:40:50;;;;;;;9.83;4.50;;;;;;;4.00;56.66;97378.20;1703514;84;21138;-76
2021/04/27 03:43:20;;;;;;;9.68;5.05;;;;;;;3.98;57.04;97377.80;1677483;85;21311;-76
2021/04/27 03:45:48;;;;;;;10.45;5.37;;;;;;;3.95;57.57;97372.16;1694873;84;21186;-75
2021/04/27 03:48:20;;;;;;;8.90;4.80;;;;;;;3.94;56.25;97366.46;1698414;84;21151;-76
2021/04/27 03:50:59;;;;;;;13.68;5.90;;;;;;;3.95;56.55;97372.16;1696330;84;21122;-76
2021/04/27 03:53:34;;;;;;;12.75;5.30;;;;;;;3.91;56.99;97377.01;1706414;84;21125;-75
2021/04/27 03:56:02;;;;;;;10.82;5.50;;;;;;;3.89;56.14;97370.47;1706325;84;21133;-75
2021/04/27 03:58:30;;;;;;;11.43;5.30;;;;;;;3.91;55.81;97369.14;1706250;84;21152;-75
2021/04/27 04:00:58;;;;;;;11.68;5.62;;;;;;;3.94;55.96;97371.70;1697617;84;21143;-75
2021/04/27 04:03:25;;;;;;;11.30;5.30;;;;;;;3.98;56.76;97370.78;1678045;84;21651;-75
2021/04/27 04:05:53;;;;;;;12.63;6.37;;;;;;;3.97;58.03;97367.75;1687242;85;21126;-75
2021/04/27 04:08:35;;;;;;;12.98;6.20;;;;;;;3.98;56.50;97373.87;1604034;85;21145;-75
2021/04/27 04:11:04;;;;;;;12.58;6.20;;;;;;;3.99;56.58;97372.55;1663379;84;21162;-75
2021/04/27 04:13:32;;;;;;;13.68;6.05;;;;;;;4.04;57.07;97369.41;1666060;85;21509;-75
2021/04/27 04:16:00;;;;;;;10.60;5.47;;;;;;;4.07;56.22;97365.42;1687192;85;21183;-75
2021/04/27 04:18:29;;;;;;;17.12;5.35;;;;;;;4.11;56.46;97368.02;1687101;85;21208;-76
2021/04/27 04:20:57;;;;;;;11.05;5.17;;;;;;;4.15;56.67;97367.09;1687856;84;21099;-76
2021/04/27 04:23:27;;;;;;;13.80;5.55;;;;;;;4.19;56.80;97367.00;1673441;85;21534;-76
2021/04/27 04:25:56;;;;;;;15.25;5.78;;;;;;;4.22;57.32;97351.23;1687399;85;21146;-76
2021/04/27 04:28:24;;;;;;;13.72;5.72;;;;;;;4.23;57.13;97358.21;1652578;85;21489;-75
2021/04/27 04:30:51;;;;;;;11.53;5.25;;;;;;;4.27;56.33;97360.80;1698163;84;21469;-76
2021/04/27 04:33:23;;;;;;;10.70;4.53;;;;;;;4.32;56.97;97358.52;1709061;84;21158;-76
2021/04/27 04:36:10;;;;;;;8.88;5.15;;;;;;;4.35;56.33;97361.10;1712826;83;21102;-75
2021/04/27 04:39:06;;;;;;;9.78;4.50;;;;;;;4.46;55.70;97360.95;1781448;79;23266;-76
2021/04/27 04:41:52;;;;;;;13.40;4.87;;;;;;;4.40;55.70;97370.20;1753041;81;21253;-76
2021/04/27 04:44:21;;;;;;;12.30;5.50;;;;;;;4.41;55.90;97369.34;1708735;82;21139;-76
2021/04/27 04:47:00;;;;;;;8.48;5.47;;;;;;;4.43;55.49;97367.54;1646031;85;21169;-76
2021/04/27 04:49:27;;;;;;;11.60;5.58;;;;;;;4.48;56.29;97370.08;1754546;82;21297;-75
2021/04/27 04:52:03;;;;;;;14.03;6.40;;;;;;;4.51;55.51;97363.48;1731251;81;21138;-76
2021/04/27 04:54:49;;;;;;;11.60;6.00;;;;;;;4.58;55.15;97377.39;1724786;82;21154;-76
2021/04/27 04:57:20;;;;;;;15.72;5.83;;;;;;;4.65;55.00;97377.70;1726539;82;21123;-76
2021/04/27 04:59:48;;;;;;;14.93;6.58;;;;;;;4.71;55.24;97376.74;1724762;83;21541;-76
2021/04/27 05:02:16;;;;;;;12.82;6.17;;;;;;;4.77;55.64;97379.72;1735669;82;21131;-76
2021/04/27 05:05:09;;;;;;;13.88;6.03;;;;;;;4.87;55.67;97379.99;1763339;79;22915;-76
2021/04/27 05:08:01;;;;;;;11.60;6.03;;;;;;;4.86;54.92;97376.95;1752155;82;21265;-76
2021/04/27 05:10:47;;;;;;;9.03;5.53;;;;;;;4.93;55.29;97377.69;1719702;82;21108;-76
2021/04/27 05:13:18;;;;;;;11.93;5.92;;;;;;;4.97;55.80;97381.56;1753704;82;21268;-76
2021/04/27 05:15:46;;;;;;;12.45;6.37;;;;;;;5.01;55.34;97373.18;1730042;81;21545;-76
2021/04/27 05:18:15;;;;;;;10.90;6.08;;;;;;;5.07;55.26;97381.41;1736857;82;21474;-76
2021/04/27 05:20:43;;;;;;;13.68;7.78;;;;;;;5.09;54.56;97387.06;1738032;82;21257;-76
2021/04/27 05:23:11;;;;;;;10.25;5.58;;;;;;;5.16;54.91;97387.82;1739389;82;21485;-75
2021/04/27 05:25:40;;;;;;;8.23;5.30;;;;;;;5.22;54.25;97382.45;1740702;82;21111;-75
2021/04/27 05:28:12;;;;;;;8.40;4.55;;;;;;;5.28;53.98;97381.48;1740436;82;21147;-75
2021/04/27 05:30:39;;;;;;;8.48;4.90;;;;;;;5.38;53.91;97385.67;1740825;82;21150;-76
2021/04/27 05:33:07;;;;;;;9.50;5.28;;;;;;;5.52;53.63;97377.52;1724717;83;21465;-77
2021/04/27 05:35:35;;;;;;;12.07;5.58;;;;;;;5.73;53.60;97382.39;1725227;82;21192;-77
2021/04/27 05:38:03;;;;;;;9.93;5.22;;;;;;;5.95;53.26;97374.46;1724635;83;21142;-77
2021/04/27 05:40:30;;;;;;;12.88;5.30;;;;;;;6.16;53.16;97378.91;1726090;82;21122;-77
2021/04/27 05:42:58;;;;;;;11.68;5.45;;;;;;;6.38;53.00;97381.05;1754580;82;21134;-76
2021/04/27 05:45:26;;;;;;;10.63;5.33;;;;;;;6.59;52.74;97377.06;1753524;81;21253;-76
2021/04/27 05:47:53;;;;;;;8.88;4.95;;;;;;;6.77;52.43;97369.60;1754540;82;21131;-76
2021/04/27 05:50:22;;;;;;;8.40;5.08;;;;;;;6.94;51.68;97367.87;1751152;82;21266;-76
2021/04/27 05:52:49;;;;;;;13.00;5.17;;;;;;;7.08;51.55;97365.34;1749714;82;21127;-76
2021/04/27 05:55:16;;;;;;;9.38;4.60;;;;;;;7.24;51.00;97360.11;1744552;82;21119;-77
2021/04/27 05:57:44;;;;;;;6.85;4.33;;;;;;;7.41;50.24;97365.37;1753673;82;21716;-76
2021/04/27 06:00:13;;;;;;;9.55;4.75;;;;;;;7.55;49.03;97357.55;1726120;82;21521;-75
2021/04/27 06:02:42;;;;;;;9.58;4.25;;;;;;;7.65;49.11;97357.70;1746352;81;21259;-77
2021/04/27 06:05:11;;;;;;;9.63;4.50;;;;;;;7.73;47.15;97362.28;1754143;81;21143;-75
2021/04/27 06:07:39;;;;;;;9.85;4.30;;;;;;;7.73;46.84;97364.07;1755074;82;21130;-74
2021/04/27 06:10:09;;;;;;;10.93;4.92;;;;;;;7.72;46.33;97365.83;1755362;82;21155;-75
2021/04/27 06:12:36;;;;;;;7.03;4.47;;;;;;;7.70;47.03;97363.70;1740193;82;21119;-76
2021/04/27 06:15:06;;;;;;;10.25;4.45;;;;;;;7.75;47.52;97366.20;1725655;82;21143;-76
2021/04/27 06:17:35;;;;;;;8.43;4.33;;;;;;;7.83;46.81;97367.30;1732635;82;21141;-76
2021/04/27 06:20:06;;;;;;;8.88;4.33;;;;;;;7.93;46.38;97368.31;1725016;83;21529;-76
2021/04/27 06:22:34;;;;;;;7.05;4.25;;;;;;;7.98;45.85;97362.92;1737480;82;21458;-75
2021/04/27 06:25:04;;;;;;;7.58;4.17;;;;;;;8.09;46.19;97363.05;1750182;82;21159;-75
2021/04/27 06:27:32;;;;;;;7.78;4.20;;;;;;;8.17;45.18;97353.11;1724853;83;21171;-77
2021/04/27 06:30:00;;;;;;;15.40;5.10;;;;;;;8.22;44.59;97348.55;1726133;82;21119;-76
2021/04/27 06:32:28;;;;;;;7.58;4.08;;;;;;;8.32;45.23;97362.34;1740965;82;21130;-76
2021/04/27 06:34:56;;;;;;;7.10;3.90;;;;;;;8.42;45.16;97363.79;1750800;82;21143;-76
2021/04/27 06:37:25;;;;;;;8.78;4.37;;;;;;;8.55;43.35;97363.42;1737469;82;21508;-76
2021/04/27 06:39:53;;;;;;;7.60;3.92;;;;;;;8.70;43.08;97367.36;1729617;82;21107;-76
2021/04/27 06:42:20;;;;;;;15.83;5.67;;;;;;;8.79;40.93;97374.13;1728611;82;21123;-76
2021/04/27 06:44:48;;;;;;;7.83;3.95;;;;;;;8.95;42.74;97372.72;1739054;82;21118;-76
2021/04/27 06:47:16;;;;;;;6.60;3.92;;;;;;;9.12;40.99;97366.00;1724646;83;21158;-76
2021/04/27 06:49:43;;;;;;;6.00;3.00;;;;;;;9.28;40.26;97354.89;1724963;83;21142;-76
2021/04/27 06:52:10;;;;;;;5.78;2.75;;;;;;;9.44;40.29;97369.33;1724912;83;21478;-76
2021/04/27 06:54:39;;;;;;;5.87;3.60;;;;;;;9.57;39.95;97374.16;1740744;82;21134;-76
2021/04/27 06:57:06;;;;;;;4.65;3.35;;;;;;;9.59;40.01;97359.96;1724680;83;21198;-77
2021/04/27 06:59:36;;;;;;;5.92;3.05;;;;;;;9.72;39.97;97360.86;1723965;83;21497;-76
2021/04/27 07:02:05;;;;;;;6.60;3.10;;;;;;;9.71;35.70;97360.46;1724703;83;21158;-76
2021/04/27 07:04:35;;;;;;;4.62;3.10;;;;;;;9.70;38.16;97365.33;1721576;81;21111;-76
2021/04/27 07:07:04;;;;;;;6.70;3.62;;;;;;;9.82;38.78;97364.89;1723145;82;21103;-76
2021/04/27 07:09:32;;;;;;;8.23;4.47;;;;;;;9.92;37.77;97365.88;1711239;84;21526;-76
2021/04/27 07:12:00;;;;;;;7.50;4.08;;;;;;;10.04;38.36;97368.92;1712440;82;21277;-76
2021/04/27 07:14:28;;;;;;;8.58;4.70;;;;;;;10.14;38.19;97369.42;1717650;82;21536;-75
2021/04/27 07:16:56;;;;;;;8.00;4.20;;;;;;;10.23;37.43;97373.98;1736069;82;21123;-75
2021/04/27 07:19:24;;;;;;;9.63;4.42;;;;;;;10.39;38.00;97385.70;1721320;81;21481;-76
2021/04/27 07:21:52;;;;;;;8.23;4.50;;;;;;;10.39;36.80;97382.20;1725609;82;21112;-76
2021/04/27 07:24:21;;;;;;;6.92;3.65;;;;;;;10.46;37.58;97389.01;1736376;82;21525;-76
2021/04/27 07:26:49;;;;;;;14.03;6.58;;;;;;;10.49;37.23;97388.91;1740701;82;21497;-76
2021/04/27 07:29:18;;;;;;;8.88;4.30;;;;;;;10.48;37.73;97394.25;1740508;82;21226;-76
2021/04/27 07:31:46;;;;;;;8.45;4.45;;;;;;;10.51;37.24;97393.66;1729245;82;21501;-76
2021/04/27 07:34:14;;;;;;;6.78;4.12;;;;;;;10.63;37.39;97389.67;1713771;82;21135;-76
2021/04/27 07:36:43;;;;;;;7.70;4.25;;;;;;;10.59;37.11;97379.27;1711163;84;21273;-76
2021/04/27 07:39:14;;;;;;;10.58;4.65;;;;;;;10.63;37.34;97387.50;1754368;81;21124;-76
2021/04/27 07:41:43;;;;;;;9.08;4.53;;;;;;;10.64;36.92;97388.77;1776591;80;21171;-76
2021/04/27 07:44:11;;;;;;;9.80;4.70;;;;;;;10.66;35.79;97384.27;1684429;84;21210;-76
2021/04/27 07:46:39;;;;;;;10.20;4.30;;;;;;;10.71;37.16;97385.39;1740483;82;21518;-83
2021/04/27 07:49:06;;;;;;;7.17;4.62;;;;;;;10.72;35.81;97391.11;1727982;82;21560;-83
2021/04/27 07:51:35;;;;;;;10.98;4.17;;;;;;;10.71;35.34;97383.22;1723389;82;21121;-83
2021/04/27 07:54:04;;;;;;;10.90;4.40;;;;;;;10.62;36.64;97385.30;1726654;82;21088;-81
2021/04/27 07:56:33;;;;;;;13.80;4.90;;;;;;;10.66;36.17;97385.59;1730708;82;21211;-82
2021/04/27 07:59:04;;;;;;;8.43;4.35;;;;;;;10.64;37.21;97391.42;1720885;82;21493;-81
2021/04/27 08:01:37;;;;;;;8.08;4.72;;;;;;;10.74;37.13;97385.73;1738674;82;21091;-81
2021/04/27 08:04:06;;;;;;;8.43;4.33;;;;;;;10.79;36.71;97385.95;1714361;82;21504;-81
2021/04/27 08:06:35;;;;;;;9.75;5.00;;;;;;;10.95;36.01;97378.70;1724843;83;21287;-80
2021/04/27 08:09:04;;;;;;;9.40;5.17;;;;;;;11.02;34.78;97389.92;1724960;82;21111;-82
2021/04/27 08:11:33;;;;;;;7.85;4.62;;;;;;;11.08;35.27;97385.23;1724773;83;21155;-82
2021/04/27 08:14:02;;;;;;;10.78;4.67;;;;;;;11.14;34.94;97385.45;1724865;83;21138;-81
2021/04/27 08:16:30;;;;;;;6.78;3.87;;;;;;;11.24;34.44;97383.73;1725142;82;21127;-81
2021/04/27 08:18:59;;;;;;;10.13;4.58;;;;;;;11.33;34.25;97392.60;1729168;82;21166;-83
2021/04/27 08:21:28;;;;;;;8.85;4.17;;;;;;;11.28;33.28;97389.28;1738902;82;21174;-80
2021/04/27 08:23:58;;;;;;;8.35;3.60;;;;;;;11.44;34.04;97380.22;1748564;82;21135;-84
2021/04/27 08:26:26;;;;;;;4.47;3.17;;;;;;;11.58;33.08;97381.81;1747806;82;21083;-84
2021/04/27 08:28:54;;;;;;;5.15;3.20;;;;;;;11.74;33.61;97385.11;1753544;81;21142;-82
2021/04/27 08:31:24;;;;;;;8.33;3.55;;;;;;;11.90;32.50;97378.66;1752431;82;21521;-80
2021/04/27 08:33:52;;;;;;;7.22;3.58;;;;;;;12.00;31.99;97382.62;1754372;82;21150;-81
2021/04/27 08:36:21;;;;;;;6.53;3.80;;;;;;;12.14;32.58;97380.69;1754711;82;21155;-80
2021/04/27 08:38:49;;;;;;;6.78;4.25;;;;;;;12.20;31.57;97379.55;1754355;82;21181;-80
2021/04/27 08:41:17;;;;;;;6.70;3.80;;;;;;;12.05;31.92;97377.61;1749762;82;21178;-82
2021/04/27 08:43:44;;;;;;;8.85;3.50;;;;;;;12.05;29.76;97372.29;1741427;82;21114;-81
2021/04/27 08:46:11;;;;;;;8.68;3.30;;;;;;;12.11;31.86;97374.66;1746391;82;21893;-81
2021/04/27 08:48:39;;;;;;;3.92;3.12;;;;;;;12.21;28.85;97374.62;1739892;82;21477;-81
2021/04/27 08:51:07;;;;;;;6.12;4.28;;;;;;;12.12;29.99;97375.05;1722538;80;21165;-79
2021/04/27 08:53:35;;;;;;;6.37;3.90;;;;;;;12.18;29.58;97377.45;1749765;80;21139;-78
2021/04/27 08:56:05;;;;;;;7.05;3.55;;;;;;;12.34;29.65;97382.88;1739491;82;21524;-78
2021/04/27 08:58:32;;;;;;;25.72;15.13;;;;;;;12.36;29.31;97378.37;1729077;82;21118;-74
2021/04/27 09:01:00;;;;;;;7.37;4.30;;;;;;;12.40;28.81;97378.63;1682666;85;21177;-75
2021/04/27 09:03:50;;;;;;;7.10;3.65;;;;;;;12.33;27.25;97373.20;1724101;83;21209;-76
2021/04/27 09:06:23;;;;;;;4.53;3.35;;;;;;;12.40;28.74;97379.09;1733925;82;21131;-76
2021/04/27 09:08:55;;;;;;;5.12;3.15;;;;;;;12.55;28.81;97372.20;1753416;82;21300;-77
2021/04/27 09:11:37;;;;;;;7.85;3.27;;;;;;;12.48;27.90;97370.75;1732266;82;21161;-78
2021/04/27 09:14:18;;;;;;;6.37;3.02;;;;;;;12.27;27.68;97370.84;1749528;82;21385;-77
2021/04/27 09:16:54;;;;;;;5.28;2.55;;;;;;;12.28;28.82;97368.56;1744024;82;21162;-75
2021/04/27 09:19:42;;;;;;;5.25;3.10;;;;;;;12.39;28.14;97368.07;1732641;81;21154;-76
2021/04/27 09:22:15;;;;;;;4.50;2.95;;;;;;;12.41;27.47;97364.86;1723750;82;21115;-76
2021/04/27 09:25:06;;;;;;;5.97;2.80;;;;;;;12.46;28.23;97365.50;1737239;82;21170;-76
2021/04/27 09:27:45;;;;;;;6.00;3.10;;;;;;;12.48;27.82;97362.33;1695681;84;21675;-76
2021/04/27 09:30:24;;;;;;;4.67;3.58;;;;;;;12.48;27.23;97354.34;1694833;84;21572;-76
2021/04/27 09:32:56;;;;;;;5.50;3.90;;;;;;;12.43;28.34;97359.48;1693860;84;21573;-76
2021/04/27 09:35:45;;;;;;;4.25;3.10;;;;;;;12.39;27.36;97357.44;1700688;84;21203;-76
2021/04/27 09:38:24;;;;;;;6.30;2.95;;;;;;;12.32;28.28;97356.86;1694310;84;21153;-75
2021/04/27 09:41:04;;;;;;;6.35;3.10;;;;;;;12.40;28.65;97348.53;1704526;84;21138;-76
2021/04/27 09:43:38;;;;;;;7.70;2.83;;;;;;;12.56;28.31;97350.45;1696976;84;21185;-76
2021/04/27 09:46:22;;;;;;;4.28;2.70;;;;;;;12.73;28.85;97339.00;1699285;84;21465;-76
2021/04/27 09:48:54;;;;;;;4.83;3.30;;;;;;;12.94;28.92;97337.08;1700210;84;21183;-76
2021/04/27 09:51:28;;;;;;;5.87;2.95;;;;;;;13.16;28.82;97329.37;1694740;84;21168;-75
2021/04/27 09:54:05;;;;;;;7.08;2.85;;;;;;;13.31;29.41;97331.23;1695649;84;21132;-76
2021/04/27 09:56:48;;;;;;;4.53;2.65;;;;;;;13.54;29.17;97327.86;1700794;84;21514;-79
2021/04/27 09:59:31;;;;;;;13.90;8.85;;;;;;;13.73;27.71;97325.56;1701147;84;21091;-78
2021/04/27 10:02:01;;;;;;;5.55;3.35;;;;;;;13.77;27.82;97326.25;1694640;84;21140;-78
2021/04/27 10:04:29;;;;;;;4.78;2.98;;;;;;;13.86;27.73;97325.77;1700911;84;21512;-78
2021/04/27 10:07:03;;;;;;;6.80;2.90;;;;;;;13.98;28.32;97319.78;1700927;83;21585;-78
2021/04/27 10:09:32;;;;;;;4.35;3.15;;;;;;;14.11;27.23;97318.64;1696633;84;21141;-78
2021/04/27 10:12:04;;;;;;;7.10;3.20;;;;;;;14.29;26.48;97316.38;1693419;84;21130;-82
2021/04/27 10:14:32;;;;;;;5.80;3.20;;;;;;;14.38;27.33;97315.38;1672451;86;21644;-81
2021/04/27 10:17:01;;;;;;;5.28;3.35;;;;;;;14.62;26.42;97307.42;1674245;84;21162;-81
2021/04/27 10:19:30;;;;;;;6.75;3.10;;;;;;;14.83;26.31;97303.16;1700087;84;21166;-82
2021/04/27 10:21:57;;;;;;;5.80;2.90;;;;;;;14.99;25.51;97292.46;1701048;84;21661;-85
2021/04/27 10:24:26;;;;;;;5.47;3.17;;;;;;;15.11;26.01;97289.05;1700795;84;21167;-85
2021/04/27 10:26:54;;;;;;;6.05;3.40;;;;;;;15.34;25.60;97296.16;1686358;84;21218;-83
2021/04/27 10:29:25;;;;;;;7.37;3.12;;;;;;;15.34;23.19;97288.16;1679419;85;21085;-83
2021/04/27 10:32:23;;;;;;;5.35;3.00;;;;;;;15.01;24.08;97282.08;1673669;85;21158;-83
2021/04/27 10:35:02;;;;;;;10.55;3.62;;;;;;;15.17;24.83;97283.33;1666458;85;21145;-79
2021/04/27 10:37:35;;;;;;;4.45;3.25;;;;;;;15.27;24.51;97280.11;1677412;85;21146;-79
2021/04/27 10:40:04;;;;;;;4.35;3.08;;;;;;;15.71;25.29;97282.37;1651583;85;21161;-79
2021/04/27 10:42:34;;;;;;;4.83;3.22;;;;;;;16.27;24.06;97281.56;1677209;85;21488;-80
2021/04/27 10:45:05;;;;;;;6.45;3.33;;;;;;;16.87;23.98;97281.28;1679254;85;21178;-81
2021/04/27 10:47:43;;;;;;;7.78;3.30;;;;;;;17.87;24.19;97271.38;1672226;85;21105;-80
2021/04/27 10:50:31;;;;;;;4.58;3.02;;;;;;;18.49;20.81;97258.05;1680181;85;21336;-81
2021/04/27 10:53:34;;;;;;;6.87;3.45;;;;;;;18.57;22.90;97271.73;1680080;85;21581;-80
2021/04/27 10:56:04;;;;;;;4.40;3.25;;;;;;;19.40;21.92;97272.34;1680192;85;21250;-81
2021/04/27 10:58:54;;;;;;;5.03;3.40;;;;;;;20.09;19.55;97261.66;1687592;85;21131;-80
2021/04/27 11:01:28;;;;;;;8.60;7.25;;;;;;;20.70;19.23;97265.68;1691501;85;21120;-81
2021/04/27 11:03:58;;;;;;;8.35;4.33;;;;;;;21.22;18.65;97260.46;1682648;85;21341;-81
2021/04/27 11:06:28;;;;;;;4.50;3.67;;;;;;;21.39;19.42;97254.14;1625361;88;21148;-80
2021/04/27 11:09:11;;;;;;;7.97;3.20;;;;;;;21.64;19.20;97262.80;1631578;87;21191;-78
2021/04/27 11:11:40;;;;;;;9.03;3.85;;;;;;;21.67;18.33;97267.06;1620598;88;22125;-79
2021/04/27 11:14:24;;;;;;;4.87;3.47;;;;;;;21.58;18.08;97258.78;1621141;88;21184;-79
2021/04/27 11:16:54;;;;;;;;;;;;;;;21.92;18.65;97254.98;1624021;88;21180;-78
2021/04/27 11:19:42;;;;;;;4.87;3.47;;;;;;;22.10;19.15;97255.22;1629081;88;20347;-79
2021/04/27 11:22:32;;;;;;;4.65;3.30;;;;;;;21.97;17.43;97244.64;1627543;87;21130;-79
2021/04/27 11:25:04;;;;;;;5.58;3.12;;;;;;;21.13;18.25;97246.94;1604001;88;21201;-79
2021/04/27 11:27:37;;;;;;;5.15;3.60;;;;;;;21.13;18.70;97249.13;1624357;87;21662;-79
2021/04/27 11:30:10;;;;;;;5.60;3.72;;;;;;;20.59;18.35;97255.80;1636756;87;21150;-79
2021/04/27 11:32:43;;;;;;;6.15;3.52;;;;;;;20.33;18.81;97250.73;1673117;86;21313;-80
2021/04/27 11:35:17;;;;;;;5.85;3.33;;;;;;;20.52;17.78;97252.75;1673489;84;21168;-78
2021/04/27 11:37:51;;;;;;;4.33;3.25;;;;;;;20.80;18.92;97247.77;1669204;86;21319;-79
2021/04/27 11:40:38;;;;;;;4.30;3.17;;;;;;;21.19;18.19;97235.63;1644638;86;21160;-83
2021/04/27 11:43:12;;;;;;;5.67;3.20;;;;;;;21.52;17.92;97228.80;1649694;86;21293;-84
2021/04/27 11:45:49;;;;;;;6.67;3.42;;;;;;;21.48;16.80;97231.78;1647334;87;21099;-85
2021/04/27 11:48:21;;;;;;;5.92;3.58;;;;;;;21.46;18.48;97235.09;1641935;86;21652;-82
2021/04/27 11:50:51;;;;;;;6.30;3.62;;;;;;;21.34;16.61;97232.95;1654243;87;21250;-84
2021/04/27 11:53:25;;;;;;;5.92;3.58;;;;;;;21.48;17.75;97226.87;1650596;87;21317;-83
2021/04/27 11:55:54;;;;;;;6.12;3.62;;;;;;;21.67;17.77;97219.87;1652943;86;21301;-85
2021/04/27 11:58:38;;;;;;;5.87;3.12;;;;;;;22.49;18.21;97223.41;1654288;87;21303;-86